Time;durP1;ratioP1;P1;durP2;ratioP2;P2;SDS_P1;SDS_P2;PMS_P1;PMS_P2;Temp;Humidity;BMP_temperature;BMP_pressure;BME280_temperature;BME280_humidity;BME280_pressure;Samples;Min_cycle;Max_cycle;Signal;HPM_P1;HPM_P2
2023/08/10 00:00:48;;;;;;;1.90;1.60;;;22.30;99.90;;;;;;4914739;29;20437;-89
2023/08/10 00:03:14;;;;;;;1.95;1.35;;;22.40;99.90;;;;;;4914889;29;20501;-90
2023/08/10 00:05:40;;;;;;;3.85;1.50;;;22.40;99.90;;;;;;4915426;29;20671;-89
2023/08/10 00:08:05;;;;;;;1.45;1.35;;;22.50;99.90;;;;;;4914394;29;20035;-89
2023/08/10 00:10:31;;;;;;;2.55;1.60;;;22.40;99.90;;;;;;4912716;29;20089;-89
2023/08/10 00:12:57;;;;;;;1.77;1.60;;;;;;;;;;4913016;29;20039;-89
2023/08/10 00:15:23;;;;;;;1.73;1.35;;;;;;;;;;4913178;29;20365;-90
2023/08/10 00:17:49;;;;;;;2.10;1.40;;;22.40;99.90;;;;;;4913832;29;20028;-89
2023/08/10 00:20:15;;;;;;;1.50;1.33;;;21.20;99.90;;;;;;4915136;29;20032;-89
2023/08/10 00:22:41;;;;;;;3.53;1.42;;;;;;;;;;4915179;29;20028;-90
2023/08/10 00:25:07;;;;;;;2.35;1.70;;;22.40;99.90;;;;;;4912170;29;20075;-90
2023/08/10 00:27:34;;;;;;;2.28;1.45;;;22.30;99.90;;;;;;4912460;29;20516;-91
2023/08/10 00:30:00;;;;;;;2.00;1.27;;;22.30;99.90;;;;;;4913016;29;20028;-89
2023/08/10 00:32:26;;;;;;;1.73;1.30;;;;;;;;;;4911951;29;20347;-88
2023/08/10 00:34:52;;;;;;;2.58;1.40;;;22.30;99.90;;;;;;4914031;29;20111;-89
2023/08/10 00:37:18;;;;;;;3.25;1.40;;;;;;;;;;4914129;29;20024;-90
2023/08/10 00:39:44;;;;;;;1.67;1.48;;;;;;;;;;4914424;29;20048;-90
2023/08/10 00:42:10;;;;;;;2.50;1.40;;;;;;;;;;4912768;29;20024;-91
2023/08/10 00:44:36;;;;;;;2.38;1.40;;;;;;;;;;4913257;29;20046;-89
2023/08/10 00:47:02;;;;;;;2.85;1.50;;;;;;;;;;4928174;29;20040;-88
2023/08/10 00:49:30;;;;;;;2.25;1.58;;;22.10;99.90;;;;;;4914067;29;20032;-90
2023/08/10 00:51:56;;;;;;;2.17;1.38;;;;;;;;;;4912352;29;20521;-89
2023/08/10 00:54:21;;;;;;;1.40;1.30;;;22.10;99.90;;;;;;4912577;29;20032;-90
2023/08/10 00:56:50;;;;;;;3.78;1.60;;;22.10;99.90;;;;;;4913970;29;20039;-90
2023/08/10 00:59:16;;;;;;;1.52;1.42;;;;;;;;;;4911332;29;20044;-89
2023/08/10 01:01:44;;;;;;;1.75;1.42;;;22.00;99.90;;;;;;4926146;29;20440;-88
2023/08/10 01:04:10;;;;;;;1.77;1.50;;;21.90;99.90;;;;;;4909906;29;20116;-89
2023/08/10 01:06:52;;;;;;;5.47;1.35;;;22.00;99.90;;;;;;4910321;29;20115;-88
2023/08/10 01:09:36;;;;;;;5.30;1.50;;;21.90;99.90;;;;;;4907942;29;20036;-88
2023/08/10 01:12:22;;;;;;;2.20;1.60;;;22.00;99.90;;;;;;4912613;29;20025;-88
2023/08/10 01:15:09;;;;;;;1.70;1.60;;;21.90;99.90;;;;;;4912366;29;20036;-88
2023/08/10 01:17:40;;;;;;;2.53;1.45;;;21.90;99.90;;;;;;4912704;29;20048;-88
2023/08/10 01:20:08;;;;;;;2.03;1.50;;;21.90;99.90;;;;;;4909953;29;20024;-88
2023/08/10 01:23:10;;;;;;;2.55;1.50;;;21.80;99.90;;;;;;4923391;29;20040;-88
2023/08/10 01:25:37;;;;;;;1.70;1.48;;;21.80;99.90;;;;;;4905874;29;20039;-88
2023/08/10 01:28:03;;;;;;;2.45;1.40;;;;;;;;;;4911255;29;20028;-88
2023/08/10 01:30:29;;;;;;;1.38;1.27;;;;;;;;;;4911492;29;20028;-88
2023/08/10 01:32:55;;;;;;;4.63;1.45;;;;;;;;;;4909229;29;20036;-88
2023/08/10 01:35:21;;;;;;;1.50;1.40;;;21.70;99.90;;;;;;4910790;29;20060;-88
2023/08/10 01:37:47;;;;;;;2.83;1.30;;;;;;;;;;4907355;29;20119;-87
2023/08/10 01:40:13;;;;;;;1.60;1.20;;;;;;;;;;4903782;29;20088;-89
2023/08/10 01:42:41;;;;;;;1.42;1.30;;;21.60;99.90;;;;;;4914618;29;20201;-88
2023/08/10 01:45:08;;;;;;;1.23;1.13;;;21.60;99.90;;;;;;4916067;29;20036;-89
2023/08/10 01:47:42;;;;;;;1.58;1.48;;;19.00;99.90;;;;;;4916297;29;20032;-88
2023/08/10 01:50:08;;;;;;;1.60;1.50;;;21.50;99.90;;;;;;4914972;29;20028;-87
2023/08/10 01:52:41;;;;;;;3.60;1.50;;;21.40;99.90;;;;;;4907063;29;20500;-87
2023/08/10 01:55:09;;;;;;;1.50;1.40;;;21.40;99.90;;;;;;4916599;29;20055;-87
2023/08/10 01:57:35;;;;;;;1.60;1.50;;;;;;;;;;4914481;29;20020;-87
2023/08/10 02:00:01;;;;;;;1.77;1.45;;;21.40;99.90;;;;;;4915458;29;20040;-87
2023/08/10 02:02:26;;;;;;;1.58;1.45;;;21.40;99.90;;;;;;4915580;29;20025;-88
2023/08/10 02:04:52;;;;;;;1.30;1.25;;;21.30;99.90;;;;;;4914795;29;20036;-87
2023/08/10 02:07:18;;;;;;;2.78;1.67;;;21.30;99.90;;;;;;4915980;29;20024;-88
2023/08/10 02:09:44;;;;;;;1.70;1.40;;;21.30;99.90;;;;;;4927224;29;20032;-88
2023/08/10 02:12:10;;;;;;;1.50;1.40;;;23.00;99.90;;;;;;4930490;29;20697;-87
2023/08/10 02:14:35;;;;;;;4.85;1.60;;;21.20;99.90;;;;;;4914362;29;20539;-86
2023/08/10 02:17:01;;;;;;;1.35;1.25;;;21.20;99.90;;;;;;4914935;29;20028;-87
2023/08/10 02:19:27;;;;;;;2.00;1.60;;;;;;;;;;4915661;29;20048;-87
2023/08/10 02:21:52;;;;;;;1.40;1.30;;;21.10;99.90;;;;;;4911950;29;20500;-86
2023/08/10 02:24:18;;;;;;;2.42;1.25;;;21.10;99.90;;;;;;4915378;29;20123;-87
2023/08/10 02:26:44;;;;;;;1.52;1.40;;;21.10;99.90;;;;;;4915024;29;20115;-88
2023/08/10 02:29:09;;;;;;;1.95;1.52;;;21.10;99.90;;;;;;4914338;29;20063;-86
2023/08/10 02:31:35;;;;;;;2.15;1.67;;;21.00;99.90;;;;;;4915095;29;20428;-86
2023/08/10 02:34:00;;;;;;;1.67;1.50;;;21.00;99.90;;;;;;4914220;29;20564;-88
2023/08/10 02:36:26;;;;;;;3.30;1.58;;;21.00;99.90;;;;;;4914812;29;20032;-87
2023/08/10 02:38:52;;;;;;;1.60;1.45;;;21.00;99.90;;;;;;4902705;29;20036;-87
2023/08/10 02:41:18;;;;;;;2.05;1.60;;;21.00;99.90;;;;;;4930041;29;20032;-87
2023/08/10 02:43:44;;;;;;;2.45;1.60;;;;;;;;;;4914662;29;20424;-86
2023/08/10 02:46:10;;;;;;;1.58;1.45;;;;;;;;;;4914447;29;20035;-88
2023/08/10 02:48:35;;;;;;;2.15;1.55;;;20.90;99.90;;;;;;4915119;29;20028;-88
2023/08/10 02:51:01;;;;;;;2.33;2.00;;;20.60;99.90;;;;;;4910278;29;20032;-87
2023/08/10 02:53:26;;;;;;;3.05;1.88;;;20.20;99.90;;;;;;4912187;29;20035;-87
2023/08/10 02:55:53;;;;;;;1.75;1.60;;;;;;;;;;4915526;29;20405;-88
2023/08/10 02:58:20;;;;;;;5.80;1.92;;;20.20;99.90;;;;;;4915559;29;20040;-88
2023/08/10 03:00:46;;;;;;;3.17;1.55;;;20.00;99.90;;;;;;4914868;29;20024;-89
2023/08/10 03:03:12;;;;;;;2.17;1.48;;;;;;;;;;4914725;29;20028;-89
2023/08/10 03:05:37;;;;;;;2.00;1.58;;;20.30;99.90;;;;;;4913425;29;20063;-89
2023/08/10 03:08:03;;;;;;;2.83;1.35;;;20.40;99.90;;;;;;4913537;29;20380;-88
2023/08/10 03:10:29;;;;;;;1.75;1.30;;;;;;;;;;4915435;29;20032;-88
2023/08/10 03:12:55;;;;;;;2.42;1.48;;;20.60;99.90;;;;;;4914897;29;20028;-88
2023/08/10 03:15:22;;;;;;;2.45;1.50;;;;;;;;;;4913786;29;20064;-89
2023/08/10 03:17:48;;;;;;;1.50;1.40;;;;;;;;;;4914095;29;20023;-88
2023/08/10 03:20:16;;;;;;;1.77;1.63;;;;;;;;;;4914509;29;20044;-89
2023/08/10 03:22:43;;;;;;;1.40;1.30;;;;;;;;;;4912517;29;20581;-90
2023/08/10 03:25:10;;;;;;;1.35;1.20;;;20.60;99.90;;;;;;4905873;29;20032;-90
2023/08/10 03:27:36;;;;;;;1.35;1.25;;;;;;;;;;4911964;29;20047;-89
2023/08/10 03:30:02;;;;;;;2.30;1.20;;;;;;;;;;4914533;29;20120;-90
2023/08/10 03:32:29;;;;;;;1.40;1.30;;;;;;;;;;4914166;29;20024;-89
2023/08/10 03:34:55;;;;;;;1.23;1.13;;;;;;;;;;4915424;29;20024;-89
2023/08/10 03:37:21;;;;;;;3.42;1.40;;;;;;;;;;4915633;29;20024;-88
2023/08/10 03:39:47;;;;;;;2.03;1.17;;;;;;;;;;4912526;29;20044;-89
2023/08/10 03:42:12;;;;;;;3.42;1.25;;;20.90;99.90;;;;;;4913435;29;20032;-88
2023/08/10 03:44:38;;;;;;;2.40;1.40;;;;;;;;;;4912581;29;20036;-89
2023/08/10 03:47:05;;;;;;;1.75;1.00;;;;;;;;;;4913787;29;20024;-89
2023/08/10 03:49:31;;;;;;;1.73;1.27;;;;;;;;;;4912784;29;20036;-90
2023/08/10 03:51:57;;;;;;;1.38;1.10;;;;;;;;;;4914182;29;20376;-88
2023/08/10 03:54:23;;;;;;;2.30;1.20;;;;;;;;;;4914987;29;20032;-88
2023/08/10 03:56:49;;;;;;;2.70;1.30;;;;;;;;;;4914038;29;20035;-87
2023/08/10 03:59:15;;;;;;;1.33;1.30;;;;;;;;;;4906453;29;20044;-89
2023/08/10 04:01:41;;;;;;;3.45;1.10;;;;;;;;;;4924600;29;20024;-87
2023/08/10 04:04:08;;;;;;;4.13;1.30;;;;;;;;;;4913311;29;20400;-88
2023/08/10 04:06:34;;;;;;;5.28;1.40;;;21.00;99.90;;;;;;4915840;29;20460;-89
2023/08/10 04:09:00;;;;;;;1.58;1.45;;;;;;;;;;4903572;29;20033;-88
2023/08/10 04:11:26;;;;;;;2.30;1.35;;;;;;;;;;4913385;29;20036;-88
2023/08/10 04:13:52;;;;;;;2.45;1.38;;;;;;;;;;4912853;29;20503;-90
2023/08/10 04:16:18;;;;;;;5.55;1.50;;;;;;;;;;4911007;29;20032;-88
2023/08/10 04:18:44;;;;;;;2.65;1.50;;;;;;;;;;4910762;29;20047;-90
2023/08/10 04:21:11;;;;;;;1.60;1.42;;;;;;;;;;4913061;29;20032;-90
2023/08/10 04:23:39;;;;;;;3.83;1.33;;;;;;;;;;4918217;29;20032;-89
2023/08/10 04:26:05;;;;;;;3.30;1.47;;;;;;;;;;4916915;29;20039;-89
2023/08/10 04:28:32;;;;;;;1.60;1.50;;;;;;;;;;4912719;29;20296;-90
2023/08/10 04:31:00;;;;;;;2.72;1.33;;;20.70;99.90;;;;;;4910140;29;20035;-89
2023/08/10 04:33:26;;;;;;;6.45;1.52;;;;;;;;;;4914709;29;20564;-89
2023/08/10 04:35:52;;;;;;;1.40;1.30;;;20.70;99.90;;;;;;4911264;29;20144;-90
2023/08/10 04:38:18;;;;;;;2.78;1.35;;;;;;;;;;4914118;29;20294;-91
2023/08/10 04:40:44;;;;;;;1.50;1.40;;;;;;;;;;4927956;29;20040;-88
2023/08/10 04:43:10;;;;;;;3.13;1.48;;;;;;;;;;4913668;29;20036;-89
2023/08/10 04:45:36;;;;;;;1.70;1.40;;;;;;;;;;4911280;29;20032;-91
2023/08/10 04:48:03;;;;;;;3.90;1.50;;;;;;;;;;4914422;29;20046;-89
2023/08/10 04:50:29;;;;;;;1.40;1.30;;;;;;;;;;4913956;29;20036;-88
2023/08/10 04:52:55;;;;;;;1.55;1.40;;;;;;;;;;4914995;29;20028;-88
2023/08/10 04:55:21;;;;;;;1.55;1.15;;;;;;;;;;4911663;29;20039;-87
2023/08/10 04:57:47;;;;;;;1.30;1.20;;;;;;;;;;4913156;29;20028;-88
2023/08/10 05:00:13;;;;;;;1.58;1.48;;;20.60;99.90;;;;;;4913649;29;20111;-88
2023/08/10 05:02:39;;;;;;;1.52;1.40;;;;;;;;;;4912565;29;20072;-87
2023/08/10 05:05:06;;;;;;;1.40;1.30;;;20.70;99.90;;;;;;4912962;29;20035;-89
2023/08/10 05:07:32;;;;;;;3.97;1.35;;;;;;;;;;4913665;29;20100;-89
2023/08/10 05:09:59;;;;;;;1.35;1.25;;;;;;;;;;4914408;29;20028;-89
2023/08/10 05:12:25;;;;;;;1.92;1.48;;;;;;;;;;4913163;29;20059;-88
2023/08/10 05:14:51;;;;;;;1.67;1.58;;;;;;;;;;4913175;29;20461;-91
2023/08/10 05:17:17;;;;;;;2.65;1.48;;;;;;;;;;4912660;29;20060;-85
2023/08/10 05:19:42;;;;;;;2.78;1.77;;;20.50;99.90;;;;;;4913875;29;20123;-86
2023/08/10 05:22:08;;;;;;;2.67;1.40;;;20.70;99.90;;;;;;4912813;29;20473;-86
2023/08/10 05:24:35;;;;;;;3.47;1.40;;;;;;;;;;4911743;29;20090;-86
2023/08/10 05:27:02;;;;;;;1.50;1.40;;;20.60;99.90;;;;;;4913415;29;20516;-86
2023/08/10 05:29:28;;;;;;;1.13;1.13;;;20.40;99.90;;;;;;4913707;29;20111;-86
2023/08/10 05:31:53;;;;;;;3.13;1.30;;;20.50;99.90;;;;;;4912904;29;20143;-87
2023/08/10 05:34:20;;;;;;;1.60;1.50;;;;;;;;;;4911550;29;20052;-86
2023/08/10 05:36:45;;;;;;;2.17;1.45;;;20.40;99.90;;;;;;4912543;29;20400;-86
2023/08/10 05:39:11;;;;;;;1.35;1.25;;;20.40;99.90;;;;;;4912653;29;20038;-86
2023/08/10 05:41:36;;;;;;;1.30;1.20;;;20.40;99.90;;;;;;4912719;29;20376;-86
2023/08/10 05:44:02;;;;;;;1.55;1.30;;;20.60;99.90;;;;;;4911497;29;20035;-86
2023/08/10 05:46:28;;;;;;;3.33;1.42;;;20.60;99.90;;;;;;4913789;29;20166;-86
2023/08/10 05:48:53;;;;;;;2.38;1.20;;;20.60;99.90;;;;;;4910808;29;20111;-86
2023/08/10 05:51:19;;;;;;;2.20;1.20;;;;;;;;;;4912642;29;20543;-86
2023/08/10 05:53:45;;;;;;;1.00;1.00;;;20.70;99.90;;;;;;4912636;29;20084;-86
2023/08/10 05:56:11;;;;;;;1.92;1.20;;;20.70;99.90;;;;;;4912537;29;20037;-86
2023/08/10 05:58:36;;;;;;;1.73;1.40;;;20.80;99.90;;;;;;4912624;29;20083;-86
2023/08/10 06:01:03;;;;;;;1.40;1.30;;;20.70;99.90;;;;;;4913443;29;20035;-86
2023/08/10 06:03:29;;;;;;;2.80;1.40;;;20.70;99.90;;;;;;4912553;29;20028;-86
2023/08/10 06:05:54;;;;;;;1.67;1.48;;;20.70;99.90;;;;;;4911436;29;20028;-86
2023/08/10 06:08:20;;;;;;;2.40;1.40;;;20.70;99.90;;;;;;4912510;29;20612;-87
2023/08/10 06:10:49;;;;;;;2.08;1.42;;;20.70;99.90;;;;;;4912581;29;20025;-86
2023/08/10 06:13:15;;;;;;;1.77;1.30;;;20.70;99.90;;;;;;4912493;29;20036;-87
2023/08/10 06:15:41;;;;;;;1.40;1.30;;;20.70;99.90;;;;;;4912559;29;20031;-87
2023/08/10 06:18:06;;;;;;;1.63;1.20;;;20.70;99.90;;;;;;4911491;29;20044;-86
2023/08/10 06:20:33;;;;;;;1.83;1.30;;;20.70;99.90;;;;;;4913286;29;20024;-87
2023/08/10 06:22:59;;;;;;;2.20;1.40;;;20.70;99.90;;;;;;4913108;29;20484;-86
2023/08/10 06:25:25;;;;;;;2.33;1.48;;;20.80;99.90;;;;;;4914659;29;20095;-87
2023/08/10 06:27:51;;;;;;;2.03;1.30;;;20.80;99.90;;;;;;4915942;29;20471;-87
2023/08/10 06:30:17;;;;;;;1.40;1.30;;;20.80;99.90;;;;;;4915713;29;20024;-87
2023/08/10 06:32:43;;;;;;;1.40;1.30;;;20.90;99.90;;;;;;4915808;29;20032;-86
2023/08/10 06:35:09;;;;;;;1.60;1.50;;;20.90;99.90;;;;;;4929009;29;20080;-86
2023/08/10 06:37:36;;;;;;;1.83;1.33;;;20.90;99.90;;;;;;4916258;29;20028;-86
2023/08/10 06:40:07;;;;;;;2.60;1.55;;;21.00;99.90;;;;;;4916407;29;20392;-87
2023/08/10 06:42:33;;;;;;;1.27;1.15;;;21.10;99.90;;;;;;4916394;29;20031;-86
2023/08/10 06:44:58;;;;;;;1.95;1.35;;;21.10;99.90;;;;;;4914569;29;20028;-86
2023/08/10 06:47:24;;;;;;;2.47;1.60;;;17.90;99.90;;;;;;4915529;29;20469;-87
2023/08/10 06:49:49;;;;;;;1.50;1.40;;;21.10;99.90;;;;;;4915438;29;20028;-86
2023/08/10 06:52:15;;;;;;;3.30;1.60;;;21.20;99.90;;;;;;4915533;29;20028;-87
2023/08/10 06:54:41;;;;;;;5.28;1.50;;;21.20;99.90;;;;;;4915416;29;20036;-86
2023/08/10 06:57:06;;;;;;;2.33;1.83;;;21.30;99.90;;;;;;4915324;29;20073;-87
2023/08/10 06:59:32;;;;;;;5.28;1.70;;;21.30;99.90;;;;;;4914332;29;20056;-86
2023/08/10 07:01:58;;;;;;;2.30;1.67;;;21.40;99.90;;;;;;4914509;29;20036;-87
2023/08/10 07:04:24;;;;;;;3.03;1.50;;;21.50;99.90;;;;;;4914239;29;20032;-87
2023/08/10 07:06:51;;;;;;;2.90;1.88;;;;;;;;;;4913861;29;20043;-87
2023/08/10 07:09:16;;;;;;;1.50;1.40;;;21.50;99.90;;;;;;4915253;29;20368;-87
2023/08/10 07:11:42;;;;;;;1.55;1.45;;;21.60;99.90;;;;;;4915293;29;20024;-91
2023/08/10 07:14:08;;;;;;;1.60;1.50;;;21.70;99.90;;;;;;4913093;29;20020;-86
2023/08/10 07:16:33;;;;;;;1.95;1.63;;;21.80;99.90;;;;;;4914860;29;20028;-86
2023/08/10 07:18:59;;;;;;;1.67;1.33;;;21.90;99.90;;;;;;4913861;29;20059;-89
2023/08/10 07:21:25;;;;;;;1.90;1.50;;;22.00;99.90;;;;;;4915003;29;20037;-89
2023/08/10 07:23:50;;;;;;;1.58;1.25;;;22.10;99.90;;;;;;4915138;29;20035;-91
2023/08/10 07:26:16;;;;;;;1.42;1.33;;;22.10;99.90;;;;;;4914947;29;20032;-86
2023/08/10 07:28:42;;;;;;;4.13;1.45;;;22.20;99.90;;;;;;4914980;29;20028;-86
2023/08/10 07:31:08;;;;;;;3.92;1.30;;;22.20;99.90;;;;;;4912392;29;20036;-86
2023/08/10 07:33:34;;;;;;;3.05;1.38;;;22.10;99.90;;;;;;4915700;29;20108;-87
2023/08/10 07:35:59;;;;;;;1.85;1.40;;;22.20;99.90;;;;;;4914001;29;20110;-91
2023/08/10 07:38:25;;;;;;;1.70;1.40;;;22.20;99.90;;;;;;4914643;29;20119;-88
2023/08/10 07:40:51;;;;;;;2.20;1.30;;;22.20;99.90;;;;;;4913831;29;20481;-92
2023/08/10 07:43:17;;;;;;;3.13;1.40;;;22.20;99.90;;;;;;4914625;29;20024;-88
2023/08/10 07:45:43;;;;;;;2.03;1.30;;;22.30;99.90;;;;;;4914455;29;20159;-86
2023/08/10 07:48:09;;;;;;;5.90;1.45;;;22.30;99.90;;;;;;4913817;29;20028;-86
2023/08/10 07:50:34;;;;;;;4.88;1.50;;;22.40;99.90;;;;;;4915242;29;20543;-86
2023/08/10 07:53:03;;;;;;;1.40;1.30;;;;;;;;;;4912336;29;20160;-87
2023/08/10 07:55:28;;;;;;;1.75;1.58;;;19.00;99.90;;;;;;4914480;29;20060;-87
2023/08/10 07:57:54;;;;;;;1.90;1.50;;;22.60;99.90;;;;;;4914216;29;20120;-87
2023/08/10 08:00:19;;;;;;;4.85;1.38;;;22.70;99.90;;;;;;4914282;29;20031;-86
2023/08/10 08:02:45;;;;;;;2.13;1.50;;;22.80;99.90;;;;;;4912064;29;20389;-86
2023/08/10 08:05:11;;;;;;;1.40;1.30;;;22.80;99.90;;;;;;4914028;29;20035;-86
2023/08/10 08:07:36;;;;;;;2.25;1.33;;;22.90;99.90;;;;;;4914853;29;20388;-86
2023/08/10 08:10:03;;;;;;;1.50;1.40;;;23.00;99.90;;;;;;4914011;29;20028;-91
2023/08/10 08:12:29;;;;;;;8.95;1.92;;;24.30;99.90;;;;;;4914020;29;20537;-89
2023/08/10 08:14:55;;;;;;;2.80;1.75;;;23.20;99.90;;;;;;4914076;29;20032;-86
2023/08/10 08:17:22;;;;;;;2.08;1.60;;;23.30;99.90;;;;;;4912438;29;20087;-87
2023/08/10 08:19:48;;;;;;;1.75;1.50;;;23.30;99.90;;;;;;4913254;29;20493;-86
2023/08/10 08:22:14;;;;;;;1.50;1.40;;;23.40;99.90;;;;;;4912560;29;20035;-86
2023/08/10 08:24:40;;;;;;;1.73;1.40;;;23.50;99.90;;;;;;4914812;29;20103;-90
2023/08/10 08:27:06;;;;;;;1.50;1.40;;;23.50;99.90;;;;;;4914807;29;20044;-88
2023/08/10 08:29:32;;;;;;;1.95;1.40;;;;;;;;;;4912613;29;20449;-87
2023/08/10 08:31:58;;;;;;;1.50;1.40;;;23.70;99.90;;;;;;4928264;29;20507;-86
2023/08/10 08:34:23;;;;;;;2.15;1.63;;;23.80;99.90;;;;;;4913796;29;20063;-88
2023/08/10 08:36:49;;;;;;;1.58;1.48;;;23.90;99.90;;;;;;4913617;29;20031;-87
2023/08/10 08:39:15;;;;;;;1.40;1.30;;;24.00;99.90;;;;;;4913659;29;20054;-88
2023/08/10 08:41:42;;;;;;;1.58;1.48;;;24.00;99.90;;;;;;4914418;29;20055;-87
2023/08/10 08:44:08;;;;;;;2.60;1.60;;;24.20;99.90;;;;;;4914402;29;20075;-86
2023/08/10 08:46:42;;;;;;;1.85;1.55;;;24.20;99.90;;;;;;4910384;29;20071;-87
2023/08/10 08:49:08;;;;;;;2.33;1.55;;;24.30;99.90;;;;;;4895496;29;20024;-87
2023/08/10 08:51:36;;;;;;;1.30;1.20;;;24.40;99.90;;;;;;4894688;29;20123;-87
2023/08/10 08:54:02;;;;;;;1.55;1.45;;;24.50;99.90;;;;;;4894764;29;20033;-87
2023/08/10 08:56:28;;;;;;;3.45;1.67;;;24.60;99.90;;;;;;4894580;29;20080;-87
2023/08/10 08:58:54;;;;;;;3.33;1.58;;;24.60;99.90;;;;;;4894298;29;20067;-87
2023/08/10 09:01:20;;;;;;;2.38;1.50;;;24.70;99.90;;;;;;4911985;29;20134;-91
2023/08/10 09:03:48;;;;;;;2.05;1.50;;;24.80;99.90;;;;;;4913213;29;20055;-87
2023/08/10 09:06:13;;;;;;;3.33;1.60;;;24.80;99.90;;;;;;4913434;29;20028;-87
2023/08/10 09:08:41;;;;;;;1.73;1.55;;;;;;;;;;4914005;29;20473;-86
2023/08/10 09:11:08;;;;;;;1.23;1.13;;;25.00;99.90;;;;;;4913285;29;20020;-86
2023/08/10 09:13:34;;;;;;;2.80;1.50;;;;;;;;;;4913093;29;20272;-86
2023/08/10 09:16:10;;;;;;;2.65;1.88;;;25.20;99.90;;;;;;4913101;29;20260;-87
2023/08/10 09:18:39;;;;;;;2.70;1.70;;;25.20;99.90;;;;;;4926838;29;20148;-86
2023/08/10 09:21:13;;;;;;;2.65;1.50;;;25.30;99.90;;;;;;4912257;29;20032;-86
2023/08/10 09:23:40;;;;;;;2.15;1.50;;;25.30;99.90;;;;;;4913727;29;20373;-88
2023/08/10 09:26:10;;;;;;;2.78;1.20;;;25.40;99.90;;;;;;4912994;29;20036;-86
2023/08/10 09:28:39;;;;;;;2.63;1.58;;;25.40;99.90;;;;;;4913197;29;20024;-87
2023/08/10 09:31:09;;;;;;;1.60;1.30;;;25.40;99.90;;;;;;4913061;29;20036;-88
2023/08/10 09:33:36;;;;;;;1.60;1.50;;;25.40;99.90;;;;;;4913086;29;20405;-87
2023/08/10 09:36:03;;;;;;;2.38;1.50;;;25.50;99.90;;;;;;4912853;29;20020;-87
2023/08/10 09:38:29;;;;;;;1.40;1.30;;;25.60;99.90;;;;;;4911922;29;20036;-87
2023/08/10 09:41:08;;;;;;;1.42;1.30;;;25.60;99.90;;;;;;4912593;29;20469;-87
2023/08/10 09:43:36;;;;;;;1.90;1.33;;;25.70;99.90;;;;;;4912800;29;20354;-88
2023/08/10 09:46:05;;;;;;;;;;;25.60;99.90;;;;;;4913104;29;20115;-87
2023/08/10 09:48:41;;;;;;;1.50;1.40;;;25.70;99.90;;;;;;4912046;29;20292;-87
2023/08/10 09:51:09;;;;;;;1.40;1.30;;;25.70;99.90;;;;;;4912691;29;20032;-87
2023/08/10 09:53:36;;;;;;;1.15;1.05;;;;;;;;;;4912741;29;20032;-87
2023/08/10 09:56:03;;;;;;;2.30;1.30;;;25.80;99.90;;;;;;4912784;29;20119;-87
2023/08/10 09:58:30;;;;;;;2.47;1.40;;;25.90;99.90;;;;;;4911843;29;20056;-87
2023/08/10 10:00:55;;;;;;;3.20;1.50;;;26.00;99.90;;;;;;4915825;29;20268;-85
2023/08/10 10:03:22;;;;;;;1.75;1.38;;;26.10;99.90;;;;;;4916467;29;20035;-87
2023/08/10 10:05:49;;;;;;;1.45;1.35;;;26.10;99.90;;;;;;4916225;29;20392;-88
2023/08/10 10:08:17;;;;;;;2.15;1.65;;;26.20;99.90;;;;;;4917089;29;20040;-88
2023/08/10 10:10:45;;;;;;;1.73;1.50;;;24.70;99.90;;;;;;4917039;29;20036;-91
2023/08/10 10:13:15;;;;;;;1.50;1.33;;;26.10;99.90;;;;;;4916219;29;20032;-87
2023/08/10 10:15:43;;;;;;;1.50;1.40;;;26.10;99.90;;;;;;4913821;29;20473;-87
2023/08/10 10:18:09;;;;;;;;;;;26.20;99.90;;;;;;4916338;29;20024;-87
2023/08/10 10:20:38;;;;;;;2.03;1.58;;;27.20;99.90;;;;;;4916012;29;20002;-87
2023/08/10 10:23:04;;;;;;;1.50;1.35;;;26.30;99.90;;;;;;4915994;29;20036;-87
2023/08/10 10:25:31;;;;;;;2.85;1.30;;;;;;;;;;4915788;29;20425;-87
2023/08/10 10:27:56;;;;;;;3.42;1.50;;;26.50;99.90;;;;;;4915537;29;20036;-87
2023/08/10 10:30:24;;;;;;;3.03;1.45;;;26.60;99.90;;;;;;4915913;29;20129;-87
2023/08/10 10:32:51;;;;;;;3.70;1.33;;;26.70;99.90;;;;;;4904386;29;20103;-87
2023/08/10 10:35:28;;;;;;;3.13;1.50;;;26.70;99.90;;;;;;4914612;29;20039;-87
2023/08/10 10:37:56;;;;;;;4.20;1.70;;;26.80;99.90;;;;;;4915780;29;20039;-87
2023/08/10 10:40:23;;;;;;;1.50;1.40;;;26.80;99.90;;;;;;4915727;29;20028;-87
2023/08/10 10:43:01;;;;;;;1.50;1.40;;;26.80;99.90;;;;;;4914157;29;20031;-87
2023/08/10 10:45:26;;;;;;;1.95;1.15;;;26.70;99.90;;;;;;4915375;29;20043;-88
2023/08/10 10:47:52;;;;;;;1.92;1.40;;;26.80;99.90;;;;;;4915654;29;20028;-86
2023/08/10 10:50:23;;;;;;;1.50;1.40;;;26.80;99.90;;;;;;4915016;29;20123;-88
2023/08/10 10:53:02;;;;;;;1.80;1.40;;;26.80;99.90;;;;;;4914200;29;20028;-87
2023/08/10 10:55:35;;;;;;;3.15;1.42;;;26.90;99.90;;;;;;4915409;29;20103;-87
2023/08/10 10:58:02;;;;;;;4.90;1.45;;;27.00;99.90;;;;;;4914031;29;20075;-87
2023/08/10 11:00:28;;;;;;;1.83;1.30;;;27.10;99.90;;;;;;4914197;29;20145;-87
2023/08/10 11:02:55;;;;;;;2.20;1.45;;;27.10;99.90;;;;;;4915379;29;20028;-87
2023/08/10 11:05:20;;;;;;;4.82;1.38;;;27.20;99.90;;;;;;4915330;29;20028;-87
2023/08/10 11:07:48;;;;;;;1.55;1.40;;;27.20;99.90;;;;;;4915927;29;20370;-88
2023/08/10 11:10:14;;;;;;;2.00;1.50;;;27.30;99.90;;;;;;4914813;29;20024;-87
2023/08/10 11:12:42;;;;;;;2.88;1.58;;;27.30;99.90;;;;;;4913431;29;20099;-87
2023/08/10 11:15:09;;;;;;;;;;;27.40;99.90;;;;;;4915539;29;20419;-87
2023/08/10 11:17:36;;;;;;;2.37;1.47;;;27.40;99.90;;;;;;4915115;29;19907;-87
2023/08/10 11:20:11;;;;;;;2.13;1.40;;;27.30;99.90;;;;;;4915018;29;20036;-87
2023/08/10 11:22:38;;;;;;;2.38;1.55;;;27.40;99.90;;;;;;4912829;29;20028;-87
2023/08/10 11:25:18;;;;;;;4.03;1.52;;;27.50;99.90;;;;;;4914084;29;20058;-87
2023/08/10 11:27:47;;;;;;;3.45;1.70;;;27.50;99.90;;;;;;4913572;29;20468;-87
2023/08/10 11:30:17;;;;;;;3.63;1.50;;;27.50;99.90;;;;;;4914869;29;20400;-87
2023/08/10 11:32:48;;;;;;;1.85;1.40;;;27.50;99.90;;;;;;4914817;29;20032;-87
2023/08/10 11:35:17;;;;;;;6.00;1.50;;;27.50;99.90;;;;;;4914742;29;20039;-87
2023/08/10 11:37:43;;;;;;;2.78;1.60;;;27.50;99.90;;;;;;4912909;29;20070;-87
2023/08/10 11:40:13;;;;;;;1.67;1.50;;;27.50;99.90;;;;;;4913522;29;20090;-87
2023/08/10 11:42:43;;;;;;;1.50;1.40;;;27.50;99.90;;;;;;4912389;29;20038;-87
2023/08/10 11:45:19;;;;;;;1.40;1.30;;;27.60;99.90;;;;;;4914441;29;20036;-87
2023/08/10 11:47:46;;;;;;;4.78;1.60;;;27.70;99.90;;;;;;4914543;29;20032;-87
2023/08/10 11:50:14;;;;;;;6.10;1.70;;;28.40;99.90;;;;;;4913443;29;20297;-87
2023/08/10 11:52:40;;;;;;;2.72;1.60;;;27.80;99.90;;;;;;4914570;29;20084;-87
2023/08/10 11:55:10;;;;;;;2.30;1.67;;;27.90;99.90;;;;;;4914360;29;20107;-88
2023/08/10 11:57:45;;;;;;;2.20;1.50;;;27.90;99.90;;;;;;4913068;29;20083;-88
2023/08/10 12:00:33;;;;;;;1.65;1.45;;;27.90;99.90;;;;;;4914261;29;20051;-87
2023/08/10 12:03:11;;;;;;;1.70;1.60;;;28.00;99.90;;;;;;4914357;29;20028;-88
2023/08/10 12:05:37;;;;;;;2.78;1.35;;;28.00;99.90;;;;;;4913434;29;20032;-87
2023/08/10 12:08:04;;;;;;;4.60;1.60;;;28.00;99.90;;;;;;4914127;29;20378;-88
2023/08/10 12:10:45;;;;;;;2.88;1.60;;;28.10;99.90;;;;;;4914291;29;20020;-87
2023/08/10 12:13:14;;;;;;;2.28;1.30;;;28.20;99.90;;;;;;4912569;29;20066;-87
2023/08/10 12:15:47;;;;;;;3.28;1.80;;;28.20;99.90;;;;;;4914001;29;20028;-87
2023/08/10 12:18:17;;;;;;;3.05;1.60;;;28.20;99.90;;;;;;4912667;29;20708;-87
2023/08/10 12:20:44;;;;;;;1.73;1.42;;;28.20;99.90;;;;;;4912712;29;20667;-87
2023/08/10 12:23:10;;;;;;;1.98;1.40;;;28.10;99.90;;;;;;4894660;29;20084;-87
2023/08/10 12:25:37;;;;;;;6.50;1.45;;;28.20;99.90;;;;;;4894969;29;20076;-88
2023/08/10 12:28:03;;;;;;;3.38;1.60;;;28.20;99.90;;;;;;4895042;29;20032;-91
2023/08/10 12:30:29;;;;;;;3.05;1.60;;;28.10;99.90;;;;;;4904740;29;20036;-87
2023/08/10 12:32:56;;;;;;;2.83;1.60;;;28.10;99.90;;;;;;4913816;29;20456;-87
2023/08/10 12:35:21;;;;;;;2.38;1.58;;;28.30;99.90;;;;;;4914470;29;20083;-91
2023/08/10 12:37:48;;;;;;;2.67;1.50;;;28.40;99.90;;;;;;4913585;29;20024;-88
2023/08/10 12:40:14;;;;;;;3.67;1.60;;;28.50;99.90;;;;;;4913573;29;20460;-87
2023/08/10 12:42:40;;;;;;;1.60;1.50;;;28.50;99.90;;;;;;4913778;29;20036;-87
2023/08/10 12:45:10;;;;;;;1.70;1.60;;;28.40;99.90;;;;;;4912306;29;20119;-87
2023/08/10 12:47:36;;;;;;;2.13;1.55;;;28.50;99.90;;;;;;4911335;29;20039;-90
2023/08/10 12:50:02;;;;;;;3.37;1.57;;;28.40;99.90;;;;;;4913399;29;20028;-89
2023/08/10 12:52:28;;;;;;;3.15;1.40;;;28.40;99.90;;;;;;4912192;29;20031;-89
2023/08/10 12:54:54;;;;;;;4.03;1.58;;;28.40;99.90;;;;;;4914311;29;20028;-87
2023/08/10 12:57:19;;;;;;;1.80;1.70;;;28.60;99.90;;;;;;4913454;29;20020;-87
2023/08/10 12:59:45;;;;;;;4.47;1.65;;;28.70;99.90;;;;;;4912127;29;20388;-87
2023/08/10 13:02:11;;;;;;;1.83;1.58;;;28.70;99.90;;;;;;4913185;29;20024;-91
2023/08/10 13:04:37;;;;;;;1.98;1.52;;;28.80;99.90;;;;;;4913279;29;20043;-89
2023/08/10 13:07:03;;;;;;;3.17;1.60;;;28.90;99.90;;;;;;4913455;29;20024;-87
2023/08/10 13:09:29;;;;;;;2.08;1.60;;;28.90;99.90;;;;;;4913382;29;20028;-91
2023/08/10 13:11:54;;;;;;;2.17;1.83;;;29.00;99.90;;;;;;4914148;29;20393;-87